createdAt,value
2018-12-11T00:02:15.066Z,5.83
2018-12-11T00:04:43.397Z,5.58
2018-12-11T00:07:12.261Z,5.10
2018-12-11T00:09:40.579Z,5.70
2018-12-11T00:12:08.892Z,4.83
2018-12-11T00:14:37.205Z,5.70
2018-12-11T00:17:05.605Z,5.30
2018-12-11T00:19:33.948Z,5.72
2018-12-11T00:22:02.268Z,4.20
2018-12-11T00:24:30.603Z,5.35
2018-12-11T00:26:59.016Z,6.08
2018-12-11T00:29:27.963Z,5.55
2018-12-11T00:31:56.268Z,5.03
2018-12-11T00:34:24.607Z,4.80
2018-12-11T00:36:52.976Z,6.58
2018-12-11T00:39:21.282Z,5.42
2018-12-11T00:41:49.609Z,4.70
2018-12-11T00:44:18.246Z,4.72
2018-12-11T00:46:46.562Z,4.30
2018-12-11T00:49:14.897Z,4.35
2018-12-11T00:51:43.303Z,4.35
2018-12-11T00:54:11.791Z,6.10
2018-12-11T00:56:40.446Z,5.00
2018-12-11T00:59:08.776Z,4.75
2018-12-11T01:01:37.140Z,4.85
2018-12-11T01:04:05.511Z,4.60
2018-12-11T01:06:34.462Z,3.92
2018-12-11T01:09:02.843Z,5.70
2018-12-11T01:11:31.162Z,5.35
2018-12-11T01:13:59.955Z,3.72
2018-12-11T01:16:28.338Z,3.90
2018-12-11T01:18:56.660Z,3.98
2018-12-11T01:21:25.095Z,3.65
2018-12-11T01:23:53.163Z,3.97
2018-12-11T01:26:22.128Z,3.70
2018-12-11T01:28:50.530Z,3.70
2018-12-11T01:31:19.875Z,3.42
2018-12-11T01:33:48.186Z,4.92
2018-12-11T01:36:16.514Z,4.03
2018-12-11T01:38:44.854Z,3.92
2018-12-11T01:41:13.163Z,4.03
2018-12-11T01:43:42.191Z,3.95
2018-12-11T01:46:10.534Z,4.37
2018-12-11T01:48:38.867Z,4.53
2018-12-11T01:51:08.009Z,4.60
2018-12-11T01:53:37.159Z,3.70
2018-12-11T01:56:05.484Z,3.80
2018-12-11T01:58:34.283Z,3.55
2018-12-11T02:01:02.605Z,3.90
2018-12-11T02:03:32.107Z,3.08
2018-12-11T02:06:01.472Z,3.10
2018-12-11T02:08:29.851Z,2.92
2018-12-11T02:10:58.227Z,3.65
2018-12-11T02:13:26.382Z,3.20
2018-12-11T02:15:54.788Z,3.10
2018-12-11T02:18:24.031Z,3.85
2018-12-11T02:20:52.473Z,3.08
2018-12-11T02:23:21.687Z,3.40
2018-12-11T02:25:50.818Z,3.10
2018-12-11T02:28:19.143Z,3.15
2018-12-11T02:30:47.525Z,3.12
2018-12-11T02:33:15.907Z,3.60
2018-12-11T02:35:44.211Z,3.05
2018-12-11T02:38:12.544Z,2.37
2018-12-11T02:40:40.978Z,2.50
2018-12-11T02:43:09.320Z,3.30
2018-12-11T02:45:37.395Z,2.50
2018-12-11T02:48:06.100Z,3.13
2018-12-11T02:50:34.412Z,2.65
2018-12-11T02:53:03.359Z,2.98
2018-12-11T02:55:31.683Z,2.87
2018-12-11T02:58:00.012Z,3.42
2018-12-11T03:00:29.047Z,3.20
2018-12-11T03:02:57.811Z,2.33
2018-12-11T03:05:26.478Z,2.77
2018-12-11T03:07:54.791Z,2.55
2018-12-11T03:10:23.936Z,2.42
2018-12-11T03:12:52.843Z,2.22
2018-12-11T03:15:22.070Z,2.17
2018-12-11T03:17:50.087Z,2.20
2018-12-11T03:20:18.411Z,2.50
2018-12-11T03:22:46.687Z,2.50
2018-12-11T03:25:15.933Z,3.20
2018-12-11T03:27:44.366Z,2.00
2018-12-11T03:30:12.743Z,2.40
2018-12-11T03:32:41.055Z,1.82
2018-12-11T03:35:09.365Z,2.60
2018-12-11T03:37:37.686Z,2.67
2018-12-11T03:40:06.442Z,2.60
2018-12-11T03:42:34.951Z,2.40
2018-12-11T03:45:03.426Z,2.30
2018-12-11T03:47:32.652Z,2.20
2018-12-11T03:50:00.965Z,2.62
2018-12-11T03:52:30.003Z,2.95
2018-12-11T03:54:58.327Z,2.25
2018-12-11T03:57:26.672Z,2.55
2018-12-11T03:59:55.051Z,1.52
2018-12-11T04:02:23.432Z,1.82
2018-12-11T04:04:51.955Z,2.80
2018-12-11T04:07:20.268Z,2.20
2018-12-11T04:09:48.592Z,1.87
2018-12-11T04:12:17.572Z,1.95
2018-12-11T04:14:46.162Z,1.80
2018-12-11T04:17:15.655Z,2.30
2018-12-11T04:19:44.343Z,1.80
2018-12-11T04:22:12.665Z,2.20
2018-12-11T04:24:40.987Z,1.95
2018-12-11T04:27:09.321Z,2.08
2018-12-11T04:29:37.666Z,2.20
2018-12-11T04:32:05.986Z,2.25
2018-12-11T04:34:34.299Z,1.90
2018-12-11T04:37:03.318Z,2.02
2018-12-11T04:39:34.089Z,2.50
2018-12-11T04:42:02.314Z,2.47
2018-12-11T04:44:30.710Z,2.25
2018-12-11T04:46:59.902Z,2.00
2018-12-11T04:49:28.582Z,1.95
2018-12-11T04:51:57.746Z,2.20
2018-12-11T04:54:26.890Z,2.30
2018-12-11T04:56:55.266Z,1.92
2018-12-11T04:59:23.592Z,2.37
2018-12-11T05:01:51.930Z,2.05
2018-12-11T05:04:20.707Z,2.20
2018-12-11T05:06:49.374Z,1.82
2018-12-11T05:09:17.683Z,1.90
2018-12-11T05:11:45.847Z,1.97
2018-12-11T05:14:15.090Z,2.30
2018-12-11T05:16:43.421Z,2.55
2018-12-11T05:19:11.743Z,2.67
2018-12-11T05:21:40.823Z,2.00
2018-12-11T05:24:09.489Z,2.02
2018-12-11T05:26:38.503Z,2.67
2018-12-11T05:29:06.831Z,2.10
2018-12-11T05:31:35.153Z,2.47
2018-12-11T05:34:03.199Z,3.07
2018-12-11T05:36:31.603Z,2.60
2018-12-11T05:38:59.690Z,2.30
2018-12-11T05:41:27.759Z,2.83
2018-12-11T05:43:55.835Z,2.50
2018-12-11T05:46:24.323Z,2.62
2018-12-11T05:48:52.702Z,3.50
2018-12-11T05:51:21.056Z,2.80
2018-12-11T05:53:49.399Z,2.30
2018-12-11T05:56:17.516Z,2.17
2018-12-11T05:58:45.547Z,3.13
2018-12-11T06:01:13.854Z,2.83
2018-12-11T06:03:41.928Z,2.63
2018-12-11T06:06:10.246Z,2.65
2018-12-11T06:08:38.564Z,2.50
2018-12-11T06:11:06.887Z,2.30
2018-12-11T06:13:35.220Z,2.70
2018-12-11T06:16:03.546Z,2.70
2018-12-11T06:18:32.093Z,2.83
2018-12-11T06:21:00.513Z,3.17
2018-12-11T06:23:28.598Z,2.87
2018-12-11T06:25:56.955Z,20.30
2018-12-11T06:28:25.498Z,3.00
2018-12-11T06:30:53.817Z,2.60
2018-12-11T06:33:23.022Z,2.80
2018-12-11T06:35:51.603Z,2.90
2018-12-11T06:38:20.354Z,3.00
2018-12-11T06:40:49.520Z,3.02
2018-12-11T06:43:17.870Z,2.60
2018-12-11T06:45:46.183Z,3.08
2018-12-11T06:48:14.711Z,3.12
2018-12-11T06:50:43.936Z,3.50
2018-12-11T06:53:12.270Z,3.20
2018-12-11T06:55:40.587Z,3.20
2018-12-11T06:58:09.299Z,3.20
2018-12-11T07:00:37.661Z,3.37
2018-12-11T07:03:06.342Z,2.83
2018-12-11T07:05:34.679Z,3.20
2018-12-11T07:08:03.652Z,3.50
2018-12-11T07:10:31.962Z,3.35
2018-12-11T07:13:01.340Z,4.00
2018-12-11T07:15:29.734Z,3.12
2018-12-11T07:17:58.158Z,3.70
2018-12-11T07:20:27.228Z,3.55
2018-12-11T07:22:55.565Z,3.65
2018-12-11T07:25:24.127Z,3.35
2018-12-11T07:27:52.458Z,3.65
2018-12-11T07:30:20.807Z,3.17
2018-12-11T07:32:49.111Z,4.20
2018-12-11T07:35:17.437Z,3.40
2018-12-11T07:37:45.508Z,3.30
2018-12-11T07:40:14.723Z,4.10
2018-12-11T07:42:43.873Z,3.55
2018-12-11T07:45:12.283Z,3.70
2018-12-11T07:47:41.938Z,4.08
2018-12-11T07:50:10.438Z,3.67
2018-12-11T07:52:38.890Z,4.00
2018-12-11T07:55:07.349Z,4.30
2018-12-11T07:57:36.056Z,3.23
2018-12-11T08:00:05.542Z,3.53
2018-12-11T08:02:33.614Z,3.80
2018-12-11T08:05:01.680Z,3.47
2018-12-11T08:07:29.998Z,2.90
2018-12-11T08:09:58.327Z,3.42
2018-12-11T08:12:26.643Z,3.90
2018-12-11T08:14:54.700Z,3.33
2018-12-11T08:17:22.733Z,3.37
2018-12-11T08:19:50.840Z,4.27
2018-12-11T08:22:19.588Z,3.10
2018-12-11T08:24:47.701Z,3.20
2018-12-11T08:27:15.984Z,3.80
2018-12-11T08:29:44.057Z,3.43
2018-12-11T08:32:12.329Z,3.63
2018-12-11T08:34:40.498Z,3.70
2018-12-11T08:37:08.819Z,3.75
2018-12-11T08:39:37.132Z,4.30
2018-12-11T08:42:05.478Z,3.77
2018-12-11T08:44:33.510Z,3.33
2018-12-11T08:47:01.562Z,3.20
2018-12-11T08:49:30.503Z,3.43
2018-12-11T08:51:58.762Z,3.70
2018-12-11T08:54:27.094Z,4.25
2018-12-11T08:56:55.160Z,3.30
2018-12-11T08:59:23.475Z,3.30
2018-12-11T09:01:51.816Z,3.60
2018-12-11T09:04:19.856Z,3.60
2018-12-11T09:06:47.911Z,3.37
2018-12-11T09:09:16.603Z,3.73
2018-12-11T09:11:45.247Z,3.10
2018-12-11T09:14:13.364Z,3.83
2018-12-11T09:16:41.526Z,3.63
2018-12-11T09:19:10.232Z,3.05
2018-12-11T09:21:38.367Z,3.17
2018-12-11T09:24:06.396Z,3.80
2018-12-11T09:26:34.544Z,3.97
2018-12-11T09:29:02.579Z,3.57
2018-12-11T09:31:30.697Z,3.00
2018-12-11T09:33:58.773Z,3.50
2018-12-11T09:36:26.837Z,2.73
2018-12-11T09:38:54.874Z,2.87
2018-12-11T09:41:23.131Z,3.10
2018-12-11T09:43:51.263Z,3.03
2018-12-11T09:46:20.017Z,3.13
2018-12-11T09:48:48.585Z,2.50
2018-12-11T09:51:17.860Z,2.60
2018-12-11T09:53:46.974Z,3.17
2018-12-11T09:56:15.145Z,3.20
2018-12-11T09:58:43.406Z,2.57
2018-12-11T10:01:11.451Z,2.50
2018-12-11T10:03:39.695Z,3.00
2018-12-11T10:06:08.165Z,2.93
2018-12-11T10:08:36.208Z,4.60
2018-12-11T10:11:04.565Z,2.97
2018-12-11T10:13:32.953Z,4.97
2018-12-11T10:16:01.517Z,3.30
2018-12-11T10:18:30.080Z,3.50
2018-12-11T10:20:58.137Z,3.90
2018-12-11T10:23:31.851Z,2.70
2018-12-11T10:25:56.497Z,3.30
2018-12-11T10:28:24.531Z,3.20
2018-12-11T10:30:53.090Z,2.70
2018-12-11T10:33:21.208Z,3.17
2018-12-11T10:35:49.295Z,2.43
2018-12-11T10:38:17.466Z,3.30
2018-12-11T10:40:45.742Z,2.23
2018-12-11T10:43:14.131Z,2.93
2018-12-11T10:45:42.195Z,2.37
2018-12-11T10:48:10.270Z,3.70
2018-12-11T10:50:39.084Z,2.40
2018-12-11T10:53:07.545Z,2.70
2018-12-11T10:55:37.192Z,2.33
2018-12-11T10:58:05.870Z,2.47
2018-12-11T11:00:39.421Z,2.27
2018-12-11T11:03:08.114Z,2.63
2018-12-11T11:05:37.043Z,3.43
2018-12-11T11:08:05.204Z,2.97
2018-12-11T11:10:33.243Z,2.93
2018-12-11T11:13:01.359Z,4.53
2018-12-11T11:15:30.098Z,2.83
2018-12-11T11:17:58.792Z,3.40
2018-12-11T11:20:27.267Z,3.47
2018-12-11T11:22:55.306Z,3.13
2018-12-11T11:25:23.453Z,3.10
2018-12-11T11:27:51.526Z,2.70
2018-12-11T11:30:19.732Z,3.37
2018-12-11T11:32:47.782Z,3.50
2018-12-11T11:35:16.267Z,3.97
2018-12-11T11:37:44.563Z,3.07
2018-12-11T11:40:12.712Z,2.60
2018-12-11T11:42:41.136Z,3.17
2018-12-11T11:45:10.267Z,3.50
2018-12-11T11:47:38.717Z,2.63
2018-12-11T11:50:08.713Z,2.77
2018-12-11T11:52:36.743Z,3.20
2018-12-11T11:55:05.142Z,3.43
2018-12-11T11:57:33.826Z,2.37
2018-12-11T12:00:02.464Z,2.90
2018-12-11T12:02:33.360Z,2.33
2018-12-11T12:05:01.422Z,5.23
2018-12-11T12:07:29.909Z,1.70
2018-12-11T12:09:58.585Z,1.87
2018-12-11T12:12:26.669Z,2.00
2018-12-11T12:14:54.963Z,2.60
2018-12-11T12:17:23.010Z,2.47
2018-12-11T12:19:51.088Z,1.90
2018-12-11T12:22:19.132Z,2.17
2018-12-11T12:24:48.020Z,2.37
2018-12-11T12:27:16.055Z,1.70
2018-12-11T12:29:44.107Z,2.30
2018-12-11T12:32:12.392Z,2.10
2018-12-11T12:34:40.438Z,2.23
2018-12-11T12:37:08.474Z,1.97
2018-12-11T12:39:36.530Z,1.63
2018-12-11T12:42:04.667Z,2.60
2018-12-11T12:44:32.741Z,2.20
2018-12-11T12:47:00.784Z,2.30
2018-12-11T12:49:28.841Z,2.90
2018-12-11T12:51:56.955Z,2.83
2018-12-11T12:54:25.001Z,2.30
2018-12-11T12:56:53.115Z,1.93
2018-12-11T12:59:21.175Z,2.43
2018-12-11T13:01:49.251Z,1.70
2018-12-11T13:04:17.741Z,1.57
2018-12-11T13:06:46.038Z,2.17
2018-12-11T13:09:14.179Z,1.80
2018-12-11T13:11:42.257Z,2.23
2018-12-11T13:14:11.307Z,2.27
2018-12-11T13:16:39.321Z,2.40
2018-12-11T13:19:07.366Z,2.20
2018-12-11T13:21:35.907Z,1.93
2018-12-11T13:24:04.030Z,1.90
2018-12-11T13:26:32.133Z,2.17
2018-12-11T13:29:00.171Z,2.00
2018-12-11T13:31:28.283Z,2.20
2018-12-11T13:33:56.759Z,2.20
2018-12-11T13:36:31.863Z,2.13
2018-12-11T13:38:55.378Z,1.97
2018-12-11T13:41:23.427Z,2.00
2018-12-11T13:43:51.672Z,3.17
2018-12-11T13:46:20.312Z,2.20
2018-12-11T13:48:48.600Z,2.70
2018-12-11T13:51:16.880Z,1.87
2018-12-11T13:53:44.926Z,1.83
2018-12-11T13:56:12.990Z,1.63
2018-12-11T13:58:41.073Z,1.77
2018-12-11T14:01:09.124Z,1.90
2018-12-11T14:03:37.579Z,1.80
2018-12-11T14:06:05.616Z,1.83
2018-12-11T14:08:33.781Z,1.97
2018-12-11T14:11:02.679Z,2.60
2018-12-11T14:13:30.747Z,2.70
2018-12-11T14:15:58.789Z,2.23
2018-12-11T14:18:26.838Z,3.33
2018-12-11T14:20:54.938Z,2.20
2018-12-11T14:23:22.996Z,2.20
2018-12-11T14:25:51.033Z,2.70
2018-12-11T14:28:19.103Z,2.10
2018-12-11T14:30:47.131Z,3.10
2018-12-11T14:33:15.741Z,2.77
2018-12-11T14:35:43.812Z,2.10
2018-12-11T14:38:12.717Z,2.20
2018-12-11T14:40:41.190Z,2.23
2018-12-11T14:43:09.234Z,2.43
2018-12-11T14:45:37.343Z,2.10
2018-12-11T14:48:05.397Z,2.30
2018-12-11T14:50:33.478Z,2.30
2018-12-11T14:53:01.868Z,2.20
2018-12-11T14:55:30.434Z,2.00
2018-12-11T14:57:58.511Z,2.10
2018-12-11T15:00:26.582Z,2.23
2018-12-11T15:02:54.908Z,2.10
2018-12-11T15:05:23.034Z,2.13
2018-12-11T15:07:51.114Z,2.43
2018-12-11T15:10:19.217Z,2.60
2018-12-11T15:12:47.348Z,2.87
2018-12-11T15:15:15.410Z,2.63
2018-12-11T15:17:43.782Z,3.30
2018-12-11T15:20:11.844Z,2.70
2018-12-11T15:22:40.522Z,2.40
2018-12-11T15:25:08.611Z,2.33
2018-12-11T15:27:37.692Z,2.83
2018-12-11T15:30:05.931Z,2.33
2018-12-11T15:32:33.993Z,2.90
2018-12-11T15:35:02.858Z,2.70
2018-12-11T15:37:31.389Z,2.90
2018-12-11T15:39:59.469Z,3.07
2018-12-11T15:42:27.505Z,2.50
2018-12-11T15:44:56.098Z,2.47
2018-12-11T15:47:24.219Z,2.63
2018-12-11T15:49:52.447Z,3.00
2018-12-11T15:52:20.513Z,2.80
2018-12-11T15:54:48.586Z,2.93
2018-12-11T15:57:16.652Z,2.60
2018-12-11T15:59:44.678Z,2.97
2018-12-11T16:02:12.754Z,2.80
2018-12-11T16:04:41.427Z,2.60
2018-12-11T16:07:10.017Z,2.70
2018-12-11T16:09:38.079Z,3.23
2018-12-11T16:12:06.115Z,3.83
2018-12-11T16:14:34.300Z,3.00
2018-12-11T16:17:02.392Z,3.20
2018-12-11T16:19:30.455Z,3.20
2018-12-11T16:21:58.568Z,4.40
2018-12-11T16:24:27.618Z,3.75
2018-12-11T16:26:55.702Z,3.53
2018-12-11T16:29:23.881Z,3.40
2018-12-11T16:31:52.253Z,3.97
2018-12-11T16:34:20.935Z,3.60
2018-12-11T16:36:49.046Z,3.93
2018-12-11T16:39:17.068Z,3.40
2018-12-11T16:41:45.449Z,3.80
2018-12-11T16:44:13.508Z,3.90
2018-12-11T16:46:41.831Z,3.87
2018-12-11T16:49:09.995Z,9.80
2018-12-11T16:51:38.041Z,3.70
2018-12-11T16:54:06.072Z,3.33
2018-12-11T16:56:34.144Z,3.80
2018-12-11T16:59:02.570Z,3.70
2018-12-11T17:01:30.630Z,3.90
2018-12-11T17:03:58.855Z,3.70
2018-12-11T17:06:26.895Z,3.57
2018-12-11T17:08:55.011Z,3.80
2018-12-11T17:11:23.042Z,3.93
2018-12-11T17:13:51.219Z,4.00
2018-12-11T17:16:20.076Z,3.80
2018-12-11T17:18:48.139Z,3.30
2018-12-11T17:21:16.519Z,5.67
2018-12-11T17:23:44.652Z,3.40
2018-12-11T17:26:12.724Z,3.90
2018-12-11T17:28:40.803Z,3.67
2018-12-11T17:31:08.844Z,3.80
2018-12-11T17:33:36.926Z,3.50
2018-12-11T17:36:05.091Z,3.27
2018-12-11T17:38:33.422Z,3.10
2018-12-11T17:41:02.298Z,3.73
2018-12-11T17:43:30.643Z,3.20
2018-12-11T17:45:58.708Z,4.20
2018-12-11T17:48:27.136Z,4.20
2018-12-11T17:50:55.480Z,3.67
2018-12-11T17:53:23.786Z,4.03
2018-12-11T17:55:51.867Z,4.43
2018-12-11T17:58:19.914Z,4.23
2018-12-11T18:00:48.246Z,3.98
2018-12-11T18:03:16.291Z,4.00
2018-12-11T18:05:44.356Z,4.50
2018-12-11T18:08:12.415Z,4.70
2018-12-11T18:10:40.495Z,4.67
2018-12-11T18:13:08.714Z,4.40
2018-12-11T18:15:36.790Z,4.30
2018-12-11T18:18:04.854Z,5.07
2018-12-11T18:20:32.905Z,4.07
2018-12-11T18:23:00.960Z,5.00
2018-12-11T18:25:29.034Z,4.70
2018-12-11T18:27:57.108Z,5.10
2018-12-11T18:30:25.196Z,4.70
2018-12-11T18:32:53.257Z,4.67
2018-12-11T18:35:21.658Z,5.73
2018-12-11T18:37:49.702Z,4.93
2018-12-11T18:40:17.812Z,5.20
2018-12-11T18:42:45.874Z,4.53
2018-12-11T18:45:13.933Z,4.80
2018-12-11T18:47:42.840Z,4.43
2018-12-11T18:50:11.604Z,3.80
2018-12-11T18:52:39.912Z,3.83
2018-12-11T18:55:08.078Z,5.00
2018-12-11T18:57:36.124Z,4.10
2018-12-11T19:00:05.126Z,4.83
2018-12-11T19:02:33.195Z,4.60
2018-12-11T19:05:01.301Z,4.83
2018-12-11T19:07:29.359Z,4.50
2018-12-11T19:09:57.450Z,5.13
2018-12-11T19:12:25.505Z,4.80
2018-12-11T19:14:53.593Z,4.30
2018-12-11T19:17:22.261Z,5.10
2018-12-11T19:19:50.327Z,4.83
2018-12-11T19:22:18.376Z,4.30
2018-12-11T19:24:46.435Z,5.57
2018-12-11T19:27:15.212Z,5.00
2018-12-11T19:29:43.269Z,4.90
2018-12-11T19:32:11.387Z,4.83
2018-12-11T19:34:39.536Z,4.87
2018-12-11T19:37:08.825Z,5.17
2018-12-11T19:39:37.105Z,4.47
2018-12-11T19:42:06.076Z,4.60
2018-12-11T19:44:34.155Z,4.97
2018-12-11T19:47:02.341Z,4.97
2018-12-11T19:49:30.529Z,5.20
2018-12-11T19:51:59.114Z,5.20
2018-12-11T19:54:27.190Z,5.20
2018-12-11T19:56:55.544Z,5.95
2018-12-11T19:59:23.903Z,5.00
2018-12-11T20:01:52.387Z,5.83
2018-12-11T20:04:20.606Z,6.27
2018-12-11T20:06:49.576Z,5.43
2018-12-11T20:09:17.641Z,6.30
2018-12-11T20:11:47.426Z,6.83
2018-12-11T20:14:15.620Z,7.00
2018-12-11T20:16:44.107Z,6.20
2018-12-11T20:19:12.510Z,6.45
2018-12-11T20:21:40.855Z,6.65
2018-12-11T20:24:08.956Z,7.00
2018-12-11T20:26:39.493Z,6.70
2018-12-11T20:29:08.003Z,6.90
2018-12-11T20:31:36.847Z,6.57
2018-12-11T20:34:05.419Z,7.03
2018-12-11T20:36:33.518Z,6.53
2018-12-11T20:39:01.862Z,10.55
2018-12-11T20:41:30.464Z,7.47
2018-12-11T20:43:58.542Z,6.73
2018-12-11T20:46:26.593Z,6.87
2018-12-11T20:48:54.641Z,6.87
2018-12-11T20:51:23.274Z,7.43
2018-12-11T20:53:51.587Z,5.25
2018-12-11T20:56:19.711Z,4.93
2018-12-11T20:58:47.841Z,6.00
2018-12-11T21:01:15.962Z,6.70
2018-12-11T21:03:44.028Z,6.00
2018-12-11T21:06:12.235Z,6.07
2018-12-11T21:08:40.396Z,5.80
2018-12-11T21:11:08.468Z,6.73
2018-12-11T21:13:36.532Z,6.83
2018-12-11T21:16:10.762Z,6.40
2018-12-11T21:18:35.365Z,6.33
2018-12-11T21:21:03.433Z,5.90
2018-12-11T21:23:31.633Z,6.50
2018-12-11T21:25:59.948Z,6.03
2018-12-11T21:28:28.349Z,6.40
2018-12-11T21:30:57.726Z,6.60
2018-12-11T21:33:26.061Z,6.53
2018-12-11T21:35:54.122Z,5.90
2018-12-11T21:38:22.446Z,7.15
2018-12-11T21:40:50.763Z,6.75
2018-12-11T21:43:19.150Z,6.92
2018-12-11T21:45:48.724Z,9.10
2018-12-11T21:48:17.070Z,8.28
2018-12-11T21:50:45.373Z,7.85
2018-12-11T21:53:13.828Z,8.05
2018-12-11T21:55:42.190Z,7.10
2018-12-11T21:58:11.125Z,7.10
2018-12-11T22:00:39.450Z,7.55
2018-12-11T22:03:07.816Z,11.33
2018-12-11T22:05:36.860Z,11.33
2018-12-11T22:08:06.127Z,13.18
2018-12-11T22:10:34.478Z,10.18
2018-12-11T22:13:02.887Z,11.80
2018-12-11T22:15:31.229Z,12.15
2018-12-11T22:17:59.582Z,11.57
2018-12-11T22:20:27.924Z,10.85
2018-12-11T22:22:56.303Z,12.10
2018-12-11T22:25:24.767Z,11.85
2018-12-11T22:27:53.945Z,11.73
2018-12-11T22:30:22.383Z,13.40
2018-12-11T22:32:50.747Z,12.10
2018-12-11T22:35:19.159Z,11.88
2018-12-11T22:37:47.634Z,12.88
2018-12-11T22:40:16.293Z,13.38
2018-12-11T22:42:44.627Z,12.05
2018-12-11T22:45:13.022Z,11.73
2018-12-11T22:47:41.335Z,9.83
2018-12-11T22:50:09.803Z,9.53
2018-12-11T22:52:38.150Z,9.15
2018-12-11T22:55:06.910Z,10.18
2018-12-11T22:57:35.263Z,9.35
2018-12-11T23:00:05.283Z,10.70
2018-12-11T23:02:34.384Z,10.20
2018-12-11T23:05:03.123Z,9.73
2018-12-11T23:07:31.553Z,10.53
2018-12-11T23:10:00.200Z,9.10
2018-12-11T23:12:28.897Z,9.63
2018-12-11T23:14:57.303Z,10.20
2018-12-11T23:17:26.778Z,10.10
2018-12-11T23:19:55.111Z,8.23
2018-12-11T23:22:23.438Z,10.35
2018-12-11T23:24:52.394Z,9.03
2018-12-11T23:27:20.834Z,8.48
2018-12-11T23:29:49.580Z,9.28
2018-12-11T23:32:18.016Z,8.95
2018-12-11T23:34:47.483Z,8.60
2018-12-11T23:37:16.709Z,8.20
2018-12-11T23:39:45.178Z,8.75
2018-12-11T23:42:13.529Z,9.00
2018-12-11T23:44:41.835Z,10.35
2018-12-11T23:47:10.164Z,9.83
2018-12-11T23:49:38.531Z,9.48
2018-12-11T23:52:07.274Z,9.23
2018-12-11T23:54:35.591Z,9.60
2018-12-11T23:57:04.442Z,8.68
2018-12-11T23:59:32.783Z,9.15
